Terminal Aerodrome Forecast
Issued by NWS Sterling, VA

Current Version | Previous Version | Graphics & Text | Print | Product List | Glossary On
Versions: 1 2 3 4 5 6 7 8 9 10 11 12 13 14 15 16 17 18 19 20 21 22
248
FTUS41 KLWX 242100 AAB
TAFDCA
TAF AMD
KDCA 242100Z 2421/2518 04009KT P6SM BKN025
     FM242300 04007KT P6SM BKN045
     FM250300 03005KT P6SM SCT090=

USA.gov is the U.S. government's official web portal to all federal, state and local government web resources and services.